createdAt,value
2024-02-19T00:00:41.890Z,0.70
2024-02-19T00:04:05.977Z,0.70
2024-02-19T00:07:31.090Z,1.00
2024-02-19T00:10:55.058Z,0.60
2024-02-19T00:14:19.116Z,0.70
2024-02-19T00:17:42.879Z,0.70
2024-02-19T00:21:06.585Z,0.70
2024-02-19T00:24:32.117Z,0.63
2024-02-19T00:27:55.668Z,0.60
2024-02-19T00:31:19.463Z,0.60
2024-02-19T00:34:44.882Z,0.83
2024-02-19T00:38:08.721Z,0.60
2024-02-19T00:41:34.050Z,0.60
2024-02-19T00:44:57.561Z,0.60
2024-02-19T00:48:21.102Z,0.63
2024-02-19T00:51:44.721Z,0.70
2024-02-19T00:55:08.978Z,0.60
2024-02-19T00:58:34.331Z,0.50
2024-02-19T01:01:57.943Z,0.60
2024-02-19T01:05:21.701Z,0.60
2024-02-19T01:08:45.211Z,0.60
2024-02-19T01:12:09.434Z,0.50
2024-02-19T01:15:34.492Z,0.60
2024-02-19T01:18:58.465Z,0.60
2024-02-19T01:22:22.157Z,0.60
2024-02-19T01:25:45.813Z,0.60
2024-02-19T01:29:09.278Z,0.50
2024-02-19T01:32:34.096Z,0.60
2024-02-19T01:35:57.877Z,0.60
2024-02-19T01:39:21.713Z,0.60
2024-02-19T01:42:45.277Z,0.60
2024-02-19T01:46:08.947Z,0.60
2024-02-19T01:49:34.461Z,0.60
2024-02-19T01:53:03.775Z,0.60
2024-02-19T01:56:27.845Z,0.53
2024-02-19T01:59:51.929Z,0.60
2024-02-19T02:03:20.992Z,0.60
2024-02-19T02:06:46.992Z,0.60
2024-02-19T02:10:11.279Z,0.60
2024-02-19T02:13:35.260Z,0.70
2024-02-19T02:16:58.724Z,0.50
2024-02-19T02:20:22.201Z,0.60
2024-02-19T02:23:47.069Z,0.60
2024-02-19T02:27:12.080Z,0.70
2024-02-19T02:30:35.913Z,0.60
2024-02-19T02:34:00.041Z,0.67
2024-02-19T02:37:23.652Z,0.60
2024-02-19T02:40:47.221Z,0.70
2024-02-19T02:44:12.666Z,0.60
2024-02-19T02:47:36.190Z,0.70
2024-02-19T02:50:59.722Z,0.60
2024-02-19T02:54:23.188Z,0.60
2024-02-19T02:57:46.785Z,0.70
2024-02-19T03:01:11.774Z,0.60
2024-02-19T03:04:35.593Z,0.60
2024-02-19T03:07:59.154Z,0.70
2024-02-19T03:11:23.148Z,0.60
2024-02-19T03:14:47.249Z,0.70
2024-02-19T03:18:12.784Z,0.60
2024-02-19T03:21:37.482Z,0.70
2024-02-19T03:25:00.972Z,0.70
2024-02-19T03:28:24.921Z,0.70
2024-02-19T03:31:49.076Z,0.63
2024-02-19T03:35:14.274Z,0.70
2024-02-19T03:38:38.395Z,0.70
2024-02-19T03:42:02.016Z,0.80
2024-02-19T03:45:25.456Z,1.00
2024-02-19T03:48:49.000Z,1.03
2024-02-19T03:52:14.294Z,1.00
2024-02-19T03:55:38.475Z,0.70
2024-02-19T03:59:01.919Z,0.80
2024-02-19T04:02:26.253Z,0.90
2024-02-19T04:05:49.745Z,0.80
2024-02-19T04:09:15.472Z,0.90
2024-02-19T04:12:39.816Z,1.00
2024-02-19T04:16:03.483Z,1.20
2024-02-19T04:19:27.506Z,0.90
2024-02-19T04:22:51.450Z,0.90
2024-02-19T04:26:16.230Z,1.00
2024-02-19T04:29:39.655Z,0.80
2024-02-19T04:33:03.311Z,0.83
2024-02-19T04:36:27.537Z,0.80
2024-02-19T04:39:51.628Z,1.03
2024-02-19T04:43:16.563Z,0.97
2024-02-19T04:46:40.046Z,0.80
2024-02-19T04:50:03.755Z,1.10
2024-02-19T04:53:27.738Z,1.30
2024-02-19T04:56:51.379Z,1.60
2024-02-19T05:00:17.288Z,1.30
2024-02-19T05:03:41.429Z,1.60
2024-02-19T05:07:05.613Z,1.77
2024-02-19T05:10:30.018Z,1.60
2024-02-19T05:13:53.507Z,2.00
2024-02-19T05:17:18.318Z,2.00
2024-02-19T05:20:42.295Z,2.10
2024-02-19T05:24:06.816Z,2.00
2024-02-19T05:27:30.550Z,2.50
2024-02-19T05:30:54.698Z,2.50
2024-02-19T05:34:19.667Z,2.20
2024-02-19T05:37:43.331Z,2.10
2024-02-19T05:41:06.929Z,2.47
2024-02-19T05:44:30.786Z,2.80
2024-02-19T05:47:54.371Z,2.60
2024-02-19T05:51:19.188Z,2.20
2024-02-19T05:54:42.693Z,2.20
2024-02-19T05:58:06.461Z,2.27
2024-02-19T06:01:30.202Z,2.13
2024-02-19T06:04:53.825Z,1.90
2024-02-19T06:08:19.051Z,2.10
2024-02-19T06:11:46.776Z,2.00
2024-02-19T06:15:10.994Z,2.17
2024-02-19T06:18:34.846Z,2.13
2024-02-19T06:21:58.343Z,1.80
2024-02-19T06:25:23.823Z,2.10
2024-02-19T06:28:47.351Z,1.97
2024-02-19T06:32:10.866Z,1.73
2024-02-19T06:35:34.409Z,1.57
2024-02-19T06:38:58.009Z,1.80
2024-02-19T06:42:23.252Z,2.37
2024-02-19T06:45:46.732Z,2.17
2024-02-19T06:49:10.774Z,1.77
2024-02-19T06:52:35.691Z,2.13
2024-02-19T06:56:01.412Z,2.30
2024-02-19T06:59:26.365Z,2.30
2024-02-19T07:02:49.827Z,2.20
2024-02-19T07:06:13.400Z,1.83
2024-02-19T07:09:37.002Z,1.90
2024-02-19T07:13:00.434Z,2.33
2024-02-19T07:16:26.015Z,1.87
2024-02-19T07:19:49.818Z,1.70
2024-02-19T07:23:13.335Z,1.80
2024-02-19T07:26:36.751Z,1.70
2024-02-19T07:30:00.334Z,1.53
2024-02-19T07:33:25.304Z,1.63
2024-02-19T07:36:49.945Z,1.47
2024-02-19T07:40:13.862Z,1.63
2024-02-19T07:43:38.081Z,1.53
2024-02-19T07:47:03.398Z,1.60
2024-02-19T07:50:29.028Z,1.80
2024-02-19T07:53:52.478Z,1.53
2024-02-19T07:57:15.908Z,1.20
2024-02-19T08:00:39.648Z,1.30
2024-02-19T08:04:03.643Z,1.13
2024-02-19T08:07:28.715Z,1.60
2024-02-19T08:10:52.272Z,1.40
2024-02-19T08:14:15.759Z,1.20
2024-02-19T08:17:39.370Z,1.23
2024-02-19T08:21:03.049Z,1.10
2024-02-19T08:24:27.992Z,1.10
2024-02-19T08:27:54.582Z,1.33
2024-02-19T08:31:18.892Z,0.90
2024-02-19T08:34:42.561Z,1.50
2024-02-19T08:38:07.660Z,1.60
2024-02-19T08:41:33.069Z,1.20
2024-02-19T08:44:56.546Z,1.20
2024-02-19T08:48:20.164Z,1.30
2024-02-19T08:51:43.754Z,1.40
2024-02-19T08:55:07.735Z,1.30
2024-02-19T08:58:35.183Z,1.20
2024-02-19T09:01:59.017Z,1.30
2024-02-19T09:05:23.749Z,1.30
2024-02-19T09:08:47.204Z,1.20
2024-02-19T09:12:10.753Z,1.00
2024-02-19T09:15:35.601Z,1.30
2024-02-19T09:18:59.267Z,1.40
2024-02-19T09:22:22.917Z,1.17
2024-02-19T09:25:46.678Z,1.00
2024-02-19T09:29:10.548Z,1.10
2024-02-19T09:32:35.479Z,0.90
2024-02-19T09:35:59.050Z,1.10
2024-02-19T09:39:22.619Z,1.00
2024-02-19T09:42:48.987Z,1.50
2024-02-19T09:46:19.562Z,0.87
2024-02-19T09:49:46.830Z,1.40
2024-02-19T09:53:13.296Z,1.17
2024-02-19T09:56:38.966Z,1.10
2024-02-19T10:00:04.903Z,1.07
2024-02-19T10:03:30.645Z,1.30
2024-02-19T10:06:56.385Z,1.00
2024-02-19T10:10:19.946Z,1.37
2024-02-19T10:13:43.555Z,1.60
2024-02-19T10:17:07.347Z,1.30
2024-02-19T10:20:31.000Z,1.30
2024-02-19T10:23:57.003Z,1.03
2024-02-19T10:27:20.721Z,1.10
2024-02-19T10:30:44.518Z,1.47
2024-02-19T10:34:10.158Z,1.10
2024-02-19T10:37:34.194Z,1.50
2024-02-19T10:40:58.931Z,1.40
2024-02-19T10:44:22.910Z,1.20
2024-02-19T10:47:47.076Z,1.70
2024-02-19T10:51:13.877Z,1.80
2024-02-19T10:54:42.960Z,1.33
2024-02-19T10:58:17.014Z,1.13
2024-02-19T11:01:44.441Z,1.20
2024-02-19T11:05:11.967Z,1.30
2024-02-19T11:08:38.005Z,1.40
2024-02-19T11:12:04.244Z,1.33
2024-02-19T11:15:29.969Z,1.40
2024-02-19T11:18:59.902Z,1.30
2024-02-19T11:22:31.290Z,1.00
2024-02-19T11:25:55.765Z,1.20
2024-02-19T11:29:22.191Z,0.90
2024-02-19T11:33:00.797Z,1.73
2024-02-19T11:36:24.798Z,1.10
2024-02-19T11:39:48.698Z,1.40
2024-02-19T11:43:13.153Z,1.30
2024-02-19T11:46:37.157Z,0.90
2024-02-19T11:50:02.246Z,1.20
2024-02-19T11:53:27.825Z,1.33
2024-02-19T11:56:53.918Z,0.90
2024-02-19T12:00:17.840Z,1.10
2024-02-19T12:03:43.751Z,1.40
2024-02-19T12:07:11.669Z,1.00
2024-02-19T12:10:37.428Z,0.90
2024-02-19T12:14:01.112Z,1.03
2024-02-19T12:17:24.786Z,1.00
2024-02-19T12:20:48.964Z,1.20
2024-02-19T12:24:14.100Z,0.80
2024-02-19T12:27:37.854Z,1.10
2024-02-19T12:31:01.475Z,0.90
2024-02-19T12:34:25.349Z,0.90
2024-02-19T12:37:49.358Z,0.90
2024-02-19T12:41:17.519Z,1.30
2024-02-19T12:44:41.332Z,1.30
2024-02-19T12:48:07.403Z,0.97
2024-02-19T12:51:35.005Z,0.90
2024-02-19T12:54:58.985Z,0.93
2024-02-19T12:58:24.649Z,0.80
2024-02-19T13:01:48.727Z,1.00
2024-02-19T13:05:12.648Z,1.20
2024-02-19T13:08:36.196Z,1.00
2024-02-19T13:12:00.632Z,1.40
2024-02-19T13:15:26.548Z,1.10
2024-02-19T13:18:52.367Z,1.17
2024-02-19T13:22:16.169Z,1.20
2024-02-19T13:25:39.759Z,1.23
2024-02-19T13:29:05.328Z,1.17
2024-02-19T13:32:31.651Z,1.10
2024-02-19T13:35:55.351Z,1.20
2024-02-19T13:39:22.308Z,1.20
2024-02-19T13:42:46.274Z,1.20
2024-02-19T13:46:10.922Z,1.03
2024-02-19T13:49:36.181Z,1.40
2024-02-19T13:52:59.714Z,1.10
2024-02-19T13:56:23.479Z,1.40
2024-02-19T13:59:47.873Z,1.60
2024-02-19T14:03:12.816Z,1.77
2024-02-19T14:06:37.924Z,1.30
2024-02-19T14:10:02.170Z,1.40
2024-02-19T14:13:26.445Z,1.20
2024-02-19T14:16:50.145Z,1.70
2024-02-19T14:20:13.971Z,1.83
2024-02-19T14:23:39.272Z,1.57
2024-02-19T14:27:04.139Z,1.70
2024-02-19T14:30:28.475Z,1.60
2024-02-19T14:33:53.359Z,1.33
2024-02-19T14:37:18.198Z,2.10
2024-02-19T14:40:45.035Z,2.20
2024-02-19T14:44:08.646Z,1.87
2024-02-19T14:47:32.334Z,1.47
2024-02-19T14:50:56.176Z,1.40
2024-02-19T14:54:19.850Z,1.40
2024-02-19T14:57:47.477Z,1.50
2024-02-19T15:01:11.188Z,1.10
2024-02-19T15:04:34.834Z,1.40
2024-02-19T15:07:58.932Z,1.80
2024-02-19T15:11:22.766Z,1.57
2024-02-19T15:14:47.872Z,1.70
2024-02-19T15:18:15.546Z,1.40
2024-02-19T15:21:39.491Z,1.30
2024-02-19T15:25:04.816Z,1.50
2024-02-19T15:28:28.433Z,1.60
2024-02-19T15:31:53.341Z,1.40
2024-02-19T15:35:17.252Z,2.33
2024-02-19T15:38:41.033Z,1.50
2024-02-19T15:42:05.245Z,1.67
2024-02-19T15:45:28.647Z,1.63
2024-02-19T15:48:54.056Z,1.43
2024-02-19T15:52:18.098Z,1.70
2024-02-19T15:55:42.075Z,1.60
2024-02-19T15:59:05.548Z,1.30
2024-02-19T16:02:29.060Z,1.40
2024-02-19T16:06:00.936Z,1.47
2024-02-19T16:09:24.673Z,1.20
2024-02-19T16:12:49.407Z,1.40
2024-02-19T16:16:17.078Z,1.20
2024-02-19T16:19:41.256Z,1.43
2024-02-19T16:23:06.501Z,1.70
2024-02-19T16:26:29.931Z,1.50
2024-02-19T16:29:53.389Z,1.47
2024-02-19T16:33:17.972Z,1.13
2024-02-19T16:36:41.775Z,1.20
2024-02-19T16:40:08.706Z,1.60
2024-02-19T16:43:33.592Z,1.80
2024-02-19T16:46:57.112Z,1.53
2024-02-19T16:50:21.125Z,1.53
2024-02-19T16:53:48.065Z,1.60
2024-02-19T16:57:12.863Z,1.50
2024-02-19T17:00:36.612Z,1.30
2024-02-19T17:04:00.219Z,1.23
2024-02-19T17:07:23.897Z,1.30
2024-02-19T17:10:49.121Z,1.37
2024-02-19T17:14:15.064Z,1.43
2024-02-19T17:17:38.632Z,1.10
2024-02-19T17:21:04.751Z,1.50
2024-02-19T17:24:29.635Z,1.30
2024-02-19T17:27:53.190Z,1.37
2024-02-19T17:31:19.017Z,1.57
2024-02-19T17:34:44.324Z,1.20
2024-02-19T17:38:07.991Z,1.40
2024-02-19T17:41:33.200Z,1.20
2024-02-19T17:44:56.887Z,1.40
2024-02-19T17:48:22.363Z,1.50
2024-02-19T17:51:45.998Z,1.37
2024-02-19T17:55:10.527Z,1.70
2024-02-19T17:58:34.717Z,1.70
2024-02-19T18:01:58.375Z,1.40
2024-02-19T18:05:23.377Z,1.63
2024-02-19T18:08:46.787Z,1.50
2024-02-19T18:12:10.300Z,1.30
2024-02-19T18:15:33.803Z,1.30
2024-02-19T18:18:58.165Z,1.40
2024-02-19T18:22:23.220Z,1.30
2024-02-19T18:25:46.887Z,1.53
2024-02-19T18:29:15.164Z,1.43
2024-02-19T18:32:41.358Z,1.60
2024-02-19T18:36:06.481Z,1.10
2024-02-19T18:39:33.389Z,1.10
2024-02-19T18:43:08.947Z,1.20
2024-02-19T18:46:36.030Z,1.20
2024-02-19T18:49:59.753Z,1.27
2024-02-19T18:53:23.608Z,1.60
2024-02-19T18:56:48.388Z,1.43
2024-02-19T19:00:12.815Z,1.50
2024-02-19T19:03:36.830Z,1.37
2024-02-19T19:07:00.438Z,1.60
2024-02-19T19:10:24.314Z,1.30
2024-02-19T19:13:49.137Z,1.40
2024-02-19T19:17:12.685Z,1.27
2024-02-19T19:20:39.924Z,1.80
2024-02-19T19:24:03.892Z,1.50
2024-02-19T19:27:29.087Z,1.50
2024-02-19T19:30:53.955Z,1.50
2024-02-19T19:34:17.899Z,1.40
2024-02-19T19:37:41.474Z,1.70
2024-02-19T19:41:05.688Z,1.20
2024-02-19T19:44:30.161Z,1.47
2024-02-19T19:47:55.105Z,1.10
2024-02-19T19:51:18.565Z,1.20
2024-02-19T19:54:42.065Z,1.47
2024-02-19T19:58:13.665Z,1.20
2024-02-19T20:01:40.989Z,1.50
2024-02-19T20:05:07.092Z,1.70
2024-02-19T20:08:30.778Z,1.40
2024-02-19T20:11:54.429Z,1.60
2024-02-19T20:15:18.021Z,1.80
2024-02-19T20:18:41.469Z,1.40
2024-02-19T20:22:06.368Z,1.63
2024-02-19T20:25:30.826Z,1.57
2024-02-19T20:28:54.407Z,1.50
2024-02-19T20:32:20.786Z,1.73
2024-02-19T20:35:45.128Z,1.90
2024-02-19T20:40:16.464Z,2.17
2024-02-19T20:43:40.164Z,2.13
2024-02-19T20:47:03.617Z,1.87
2024-02-19T20:50:27.715Z,2.33
2024-02-19T20:53:51.352Z,1.60
2024-02-19T20:57:16.222Z,1.43
2024-02-19T21:00:39.762Z,1.20
2024-02-19T21:04:05.933Z,1.43
2024-02-19T21:07:29.564Z,0.93
2024-02-19T21:10:53.191Z,1.30
2024-02-19T21:14:18.043Z,1.50
2024-02-19T21:17:41.587Z,1.20
2024-02-19T21:21:10.100Z,1.40
2024-02-19T21:24:36.198Z,1.63
2024-02-19T21:28:00.568Z,1.40
2024-02-19T21:31:25.837Z,1.60
2024-02-19T21:34:49.980Z,2.00
2024-02-19T21:38:13.475Z,1.80
2024-02-19T21:41:37.107Z,1.27
2024-02-19T21:45:00.623Z,1.03
2024-02-19T21:48:25.725Z,1.30
2024-02-19T21:51:49.642Z,1.30
2024-02-19T21:55:14.040Z,1.20
2024-02-19T21:58:38.804Z,1.47
2024-02-19T22:02:02.379Z,1.40
2024-02-19T22:05:27.334Z,1.30
2024-02-19T22:08:52.264Z,1.57
2024-02-19T22:12:16.186Z,1.50
2024-02-19T22:15:39.640Z,1.87
2024-02-19T22:19:03.191Z,1.57
2024-02-19T22:22:29.582Z,1.83
2024-02-19T22:25:53.829Z,2.07
2024-02-19T22:29:17.497Z,1.77
2024-02-19T22:32:41.001Z,2.90
2024-02-19T22:36:04.902Z,2.20
2024-02-19T22:39:31.658Z,2.10
2024-02-19T22:42:55.220Z,2.10
2024-02-19T22:46:18.746Z,3.27
2024-02-19T22:49:42.351Z,2.87
2024-02-19T22:53:06.958Z,3.20
2024-02-19T22:56:31.788Z,2.83
2024-02-19T22:59:55.386Z,3.00
2024-02-19T23:03:18.969Z,3.10
2024-02-19T23:06:42.533Z,3.20
2024-02-19T23:10:08.754Z,3.00
2024-02-19T23:13:34.183Z,2.90
2024-02-19T23:17:00.439Z,2.33
2024-02-19T23:20:23.890Z,3.17
2024-02-19T23:23:47.895Z,2.30
2024-02-19T23:27:11.877Z,2.00
2024-02-19T23:30:37.226Z,1.77
2024-02-19T23:34:00.893Z,2.23
2024-02-19T23:37:24.660Z,2.23
2024-02-19T23:40:48.778Z,2.27
2024-02-19T23:44:12.788Z,2.80
2024-02-19T23:47:38.404Z,2.40
2024-02-19T23:51:02.010Z,2.90
2024-02-19T23:54:25.858Z,2.43
2024-02-19T23:57:49.767Z,2.70
